sensor_id;sensor_type;location;lat;lon;timestamp;temperature;humidity
25991;DHT22;13779;-33.886;151.198;2023-02-28T00:00:53;23.90;99.90
25991;DHT22;13779;-33.886;151.198;2023-02-28T00:03:23;23.90;99.90
25991;DHT22;13779;-33.886;151.198;2023-02-28T00:05:54;23.80;99.90
25991;DHT22;13779;-33.886;151.198;2023-02-28T00:08:25;23.90;99.90
25991;DHT22;13779;-33.886;151.198;2023-02-28T00:11:00;23.80;99.90
25991;DHT22;13779;-33.886;151.198;2023-02-28T00:13:33;23.80;99.90
25991;DHT22;13779;-33.886;151.198;2023-02-28T00:16:09;23.80;99.90
25991;DHT22;13779;-33.886;151.198;2023-02-28T00:18:40;23.90;99.90
25991;DHT22;13779;-33.886;151.198;2023-02-28T00:21:11;23.90;99.90
25991;DHT22;13779;-33.886;151.198;2023-02-28T00:23:42;23.90;99.90
25991;DHT22;13779;-33.886;151.198;2023-02-28T00:26:12;23.90;99.90
25991;DHT22;13779;-33.886;151.198;2023-02-28T00:28:43;23.90;99.90
25991;DHT22;13779;-33.886;151.198;2023-02-28T00:31:14;23.90;99.90
25991;DHT22;13779;-33.886;151.198;2023-02-28T00:33:45;23.90;99.90
25991;DHT22;13779;-33.886;151.198;2023-02-28T00:36:15;23.90;99.90
25991;DHT22;13779;-33.886;151.198;2023-02-28T00:38:46;23.80;99.90
25991;DHT22;13779;-33.886;151.198;2023-02-28T00:41:16;23.80;99.90
25991;DHT22;13779;-33.886;151.198;2023-02-28T00:43:47;23.80;99.90
25991;DHT22;13779;-33.886;151.198;2023-02-28T00:46:18;23.90;99.90
25991;DHT22;13779;-33.886;151.198;2023-02-28T00:48:49;23.90;99.90
25991;DHT22;13779;-33.886;151.198;2023-02-28T00:51:19;23.90;99.90
25991;DHT22;13779;-33.886;151.198;2023-02-28T00:53:50;23.90;99.90
25991;DHT22;13779;-33.886;151.198;2023-02-28T00:56:20;24.00;99.90
25991;DHT22;13779;-33.886;151.198;2023-02-28T00:58:51;24.00;99.90
25991;DHT22;13779;-33.886;151.198;2023-02-28T01:01:22;24.10;99.90
25991;DHT22;13779;-33.886;151.198;2023-02-28T01:03:52;24.00;99.90
25991;DHT22;13779;-33.886;151.198;2023-02-28T01:06:23;24.10;99.90
25991;DHT22;13779;-33.886;151.198;2023-02-28T01:08:53;24.10;99.90
25991;DHT22;13779;-33.886;151.198;2023-02-28T01:11:24;24.20;99.90
25991;DHT22;13779;-33.886;151.198;2023-02-28T01:13:55;24.30;99.90
25991;DHT22;13779;-33.886;151.198;2023-02-28T01:16:25;24.40;99.90
25991;DHT22;13779;-33.886;151.198;2023-02-28T01:18:56;24.50;99.90
25991;DHT22;13779;-33.886;151.198;2023-02-28T01:21:27;24.50;99.90
25991;DHT22;13779;-33.886;151.198;2023-02-28T01:23:59;24.60;99.90
25991;DHT22;13779;-33.886;151.198;2023-02-28T01:26:30;24.60;99.90
25991;DHT22;13779;-33.886;151.198;2023-02-28T01:29:01;24.70;99.90
25991;DHT22;13779;-33.886;151.198;2023-02-28T01:31:31;24.70;99.90
25991;DHT22;13779;-33.886;151.198;2023-02-28T01:34:05;24.80;99.90
25991;DHT22;13779;-33.886;151.198;2023-02-28T01:36:36;24.80;99.90
25991;DHT22;13779;-33.886;151.198;2023-02-28T01:39:06;24.90;99.90
25991;DHT22;13779;-33.886;151.198;2023-02-28T01:41:37;25.10;99.90
25991;DHT22;13779;-33.886;151.198;2023-02-28T01:47:15;25.20;99.90
25991;DHT22;13779;-33.886;151.198;2023-02-28T01:49:46;25.10;99.90
25991;DHT22;13779;-33.886;151.198;2023-02-28T01:52:16;25.00;99.90
25991;DHT22;13779;-33.886;151.198;2023-02-28T01:54:56;25.00;99.90
25991;DHT22;13779;-33.886;151.198;2023-02-28T01:57:32;25.00;99.90
25991;DHT22;13779;-33.886;151.198;2023-02-28T02:00:13;25.00;99.90
25991;DHT22;13779;-33.886;151.198;2023-02-28T02:02:47;25.00;99.90
25991;DHT22;13779;-33.886;151.198;2023-02-28T02:05:22;25.00;99.90
25991;DHT22;13779;-33.886;151.198;2023-02-28T02:07:55;25.10;99.90
25991;DHT22;13779;-33.886;151.198;2023-02-28T02:10:36;25.10;99.90
25991;DHT22;13779;-33.886;151.198;2023-02-28T02:13:34;25.10;99.90
25991;DHT22;13779;-33.886;151.198;2023-02-28T02:27:20;24.90;99.90
25991;DHT22;13779;-33.886;151.198;2023-02-28T02:35:42;24.80;99.90
25991;DHT22;13779;-33.886;151.198;2023-02-28T02:38:20;24.80;99.90
25991;DHT22;13779;-33.886;151.198;2023-02-28T02:46:37;24.80;99.90
25991;DHT22;13779;-33.886;151.198;2023-02-28T02:49:17;24.80;99.90
25991;DHT22;13779;-33.886;151.198;2023-02-28T02:51:50;24.80;99.90
25991;DHT22;13779;-33.886;151.198;2023-02-28T02:54:28;24.80;99.90
25991;DHT22;13779;-33.886;151.198;2023-02-28T02:57:11;24.80;99.90
25991;DHT22;13779;-33.886;151.198;2023-02-28T02:59:43;24.80;99.90
25991;DHT22;13779;-33.886;151.198;2023-02-28T03:02:15;24.80;99.90
25991;DHT22;13779;-33.886;151.198;2023-02-28T03:04:59;24.90;99.90
25991;DHT22;13779;-33.886;151.198;2023-02-28T03:07:30;25.10;99.90
25991;DHT22;13779;-33.886;151.198;2023-02-28T03:10:00;25.20;99.90
25991;DHT22;13779;-33.886;151.198;2023-02-28T03:12:43;25.20;99.90
25991;DHT22;13779;-33.886;151.198;2023-02-28T03:15:39;25.30;99.90
25991;DHT22;13779;-33.886;151.198;2023-02-28T03:18:29;25.40;99.90
25991;DHT22;13779;-33.886;151.198;2023-02-28T03:23:57;25.50;99.90
25991;DHT22;13779;-33.886;151.198;2023-02-28T03:26:29;25.50;99.90
25991;DHT22;13779;-33.886;151.198;2023-02-28T03:29:23;25.50;99.90
25991;DHT22;13779;-33.886;151.198;2023-02-28T03:34:38;25.60;99.90
25991;DHT22;13779;-33.886;151.198;2023-02-28T03:37:13;25.60;99.90
25991;DHT22;13779;-33.886;151.198;2023-02-28T03:39:56;25.60;99.90
25991;DHT22;13779;-33.886;151.198;2023-02-28T03:42:29;25.50;99.90
25991;DHT22;13779;-33.886;151.198;2023-02-28T03:45:04;25.60;99.90
25991;DHT22;13779;-33.886;151.198;2023-02-28T03:47:48;25.70;99.90
25991;DHT22;13779;-33.886;151.198;2023-02-28T03:52:58;25.50;99.90
25991;DHT22;13779;-33.886;151.198;2023-02-28T03:55:37;25.40;99.90
25991;DHT22;13779;-33.886;151.198;2023-02-28T03:58:31;25.50;99.90
25991;DHT22;13779;-33.886;151.198;2023-02-28T04:01:15;25.50;99.90
25991;DHT22;13779;-33.886;151.198;2023-02-28T04:03:47;25.50;99.90
25991;DHT22;13779;-33.886;151.198;2023-02-28T04:06:22;25.40;99.90
25991;DHT22;13779;-33.886;151.198;2023-02-28T04:08:53;25.30;99.90
25991;DHT22;13779;-33.886;151.198;2023-02-28T04:11:27;25.40;99.90
25991;DHT22;13779;-33.886;151.198;2023-02-28T04:14:00;25.30;99.90
25991;DHT22;13779;-33.886;151.198;2023-02-28T04:16:33;25.20;99.90
25991;DHT22;13779;-33.886;151.198;2023-02-28T04:19:05;25.30;99.90
25991;DHT22;13779;-33.886;151.198;2023-02-28T04:21:38;25.30;99.90
25991;DHT22;13779;-33.886;151.198;2023-02-28T04:24:21;25.20;99.90
25991;DHT22;13779;-33.886;151.198;2023-02-28T04:26:54;25.30;99.90
25991;DHT22;13779;-33.886;151.198;2023-02-28T04:29:30;25.30;99.90
25991;DHT22;13779;-33.886;151.198;2023-02-28T04:32:04;25.30;99.90
25991;DHT22;13779;-33.886;151.198;2023-02-28T04:34:35;25.20;99.90
25991;DHT22;13779;-33.886;151.198;2023-02-28T04:37:06;25.20;99.90
25991;DHT22;13779;-33.886;151.198;2023-02-28T04:39:41;25.20;99.90
25991;DHT22;13779;-33.886;151.198;2023-02-28T04:42:12;25.30;99.90
25991;DHT22;13779;-33.886;151.198;2023-02-28T04:44:43;25.40;99.90
25991;DHT22;13779;-33.886;151.198;2023-02-28T04:49:41;25.40;99.90
25991;DHT22;13779;-33.886;151.198;2023-02-28T04:52:14;25.40;99.90
25991;DHT22;13779;-33.886;151.198;2023-02-28T04:54:44;25.50;99.90
25991;DHT22;13779;-33.886;151.198;2023-02-28T04:57:15;25.40;99.90
25991;DHT22;13779;-33.886;151.198;2023-02-28T04:59:45;25.50;99.90
25991;DHT22;13779;-33.886;151.198;2023-02-28T05:02:15;25.50;99.90
25991;DHT22;13779;-33.886;151.198;2023-02-28T05:04:45;25.50;99.90
25991;DHT22;13779;-33.886;151.198;2023-02-28T05:07:15;25.40;99.90
25991;DHT22;13779;-33.886;151.198;2023-02-28T05:09:46;25.40;99.90
25991;DHT22;13779;-33.886;151.198;2023-02-28T05:12:16;25.30;99.90
25991;DHT22;13779;-33.886;151.198;2023-02-28T05:14:46;25.20;99.90
25991;DHT22;13779;-33.886;151.198;2023-02-28T05:17:16;25.20;99.90
25991;DHT22;13779;-33.886;151.198;2023-02-28T05:19:46;25.20;99.90
25991;DHT22;13779;-33.886;151.198;2023-02-28T05:22:16;25.20;99.90
25991;DHT22;13779;-33.886;151.198;2023-02-28T05:24:47;25.20;99.90
25991;DHT22;13779;-33.886;151.198;2023-02-28T05:27:17;25.20;99.90
25991;DHT22;13779;-33.886;151.198;2023-02-28T05:29:47;25.10;99.90
25991;DHT22;13779;-33.886;151.198;2023-02-28T05:32:18;25.20;99.90
25991;DHT22;13779;-33.886;151.198;2023-02-28T05:34:48;25.20;99.90
25991;DHT22;13779;-33.886;151.198;2023-02-28T05:37:18;25.20;99.90
25991;DHT22;13779;-33.886;151.198;2023-02-28T05:39:48;25.10;99.90
25991;DHT22;13779;-33.886;151.198;2023-02-28T05:42:18;25.00;99.90
25991;DHT22;13779;-33.886;151.198;2023-02-28T05:44:53;24.80;99.90
25991;DHT22;13779;-33.886;151.198;2023-02-28T05:47:26;24.80;99.90
25991;DHT22;13779;-33.886;151.198;2023-02-28T05:49:56;24.90;99.90
25991;DHT22;13779;-33.886;151.198;2023-02-28T05:52:27;24.90;99.90
25991;DHT22;13779;-33.886;151.198;2023-02-28T05:55:03;24.90;99.90
25991;DHT22;13779;-33.886;151.198;2023-02-28T05:57:33;24.80;99.90
25991;DHT22;13779;-33.886;151.198;2023-02-28T06:00:04;24.90;99.90
25991;DHT22;13779;-33.886;151.198;2023-02-28T06:02:34;24.90;99.90
25991;DHT22;13779;-33.886;151.198;2023-02-28T06:05:05;24.90;99.90
25991;DHT22;13779;-33.886;151.198;2023-02-28T06:07:35;24.90;99.90
25991;DHT22;13779;-33.886;151.198;2023-02-28T06:10:06;24.90;99.90
25991;DHT22;13779;-33.886;151.198;2023-02-28T06:12:37;24.90;99.90
25991;DHT22;13779;-33.886;151.198;2023-02-28T06:15:11;24.90;99.90
25991;DHT22;13779;-33.886;151.198;2023-02-28T06:17:43;24.90;99.90
25991;DHT22;13779;-33.886;151.198;2023-02-28T06:20:13;24.90;99.90
25991;DHT22;13779;-33.886;151.198;2023-02-28T06:22:43;24.90;99.90
25991;DHT22;13779;-33.886;151.198;2023-02-28T06:25:14;24.90;99.90
25991;DHT22;13779;-33.886;151.198;2023-02-28T06:27:44;24.90;99.90
25991;DHT22;13779;-33.886;151.198;2023-02-28T06:30:14;24.80;99.90
25991;DHT22;13779;-33.886;151.198;2023-02-28T06:32:44;24.80;99.90
25991;DHT22;13779;-33.886;151.198;2023-02-28T06:35:15;24.70;99.90
25991;DHT22;13779;-33.886;151.198;2023-02-28T06:37:45;24.70;99.90
25991;DHT22;13779;-33.886;151.198;2023-02-28T06:40:15;24.70;99.90
25991;DHT22;13779;-33.886;151.198;2023-02-28T06:42:45;24.60;99.90
25991;DHT22;13779;-33.886;151.198;2023-02-28T06:45:16;24.70;99.90
25991;DHT22;13779;-33.886;151.198;2023-02-28T06:47:46;24.70;99.90
25991;DHT22;13779;-33.886;151.198;2023-02-28T06:50:24;24.60;99.90
25991;DHT22;13779;-33.886;151.198;2023-02-28T06:52:58;24.60;99.90
25991;DHT22;13779;-33.886;151.198;2023-02-28T06:55:29;24.60;99.90
25991;DHT22;13779;-33.886;151.198;2023-02-28T06:57:59;24.60;99.90
25991;DHT22;13779;-33.886;151.198;2023-02-28T07:00:29;24.60;99.90
25991;DHT22;13779;-33.886;151.198;2023-02-28T07:02:59;24.60;99.90
25991;DHT22;13779;-33.886;151.198;2023-02-28T07:05:30;24.60;99.90
25991;DHT22;13779;-33.886;151.198;2023-02-28T07:08:00;24.60;99.90
25991;DHT22;13779;-33.886;151.198;2023-02-28T07:10:31;24.50;99.90
25991;DHT22;13779;-33.886;151.198;2023-02-28T07:13:02;24.50;99.90
25991;DHT22;13779;-33.886;151.198;2023-02-28T07:15:33;24.60;99.90
25991;DHT22;13779;-33.886;151.198;2023-02-28T07:18:07;24.60;99.90
25991;DHT22;13779;-33.886;151.198;2023-02-28T07:20:37;24.60;99.90
25991;DHT22;13779;-33.886;151.198;2023-02-28T07:23:07;24.60;99.90
25991;DHT22;13779;-33.886;151.198;2023-02-28T07:25:38;24.60;99.90
25991;DHT22;13779;-33.886;151.198;2023-02-28T07:28:08;24.60;99.90
25991;DHT22;13779;-33.886;151.198;2023-02-28T07:30:39;24.50;99.90
25991;DHT22;13779;-33.886;151.198;2023-02-28T07:33:11;24.40;99.90
25991;DHT22;13779;-33.886;151.198;2023-02-28T07:35:41;24.40;99.90
25991;DHT22;13779;-33.886;151.198;2023-02-28T07:38:11;24.30;99.90
25991;DHT22;13779;-33.886;151.198;2023-02-28T07:40:43;24.30;99.90
25991;DHT22;13779;-33.886;151.198;2023-02-28T07:43:13;24.30;99.90
25991;DHT22;13779;-33.886;151.198;2023-02-28T07:45:43;24.40;99.90
25991;DHT22;13779;-33.886;151.198;2023-02-28T07:48:13;24.30;99.90
25991;DHT22;13779;-33.886;151.198;2023-02-28T07:50:44;24.30;99.90
25991;DHT22;13779;-33.886;151.198;2023-02-28T07:53:17;24.30;99.90
25991;DHT22;13779;-33.886;151.198;2023-02-28T07:55:47;24.20;99.90
25991;DHT22;13779;-33.886;151.198;2023-02-28T07:58:18;24.20;99.90
25991;DHT22;13779;-33.886;151.198;2023-02-28T08:00:48;24.20;99.90
25991;DHT22;13779;-33.886;151.198;2023-02-28T08:03:20;24.20;99.90
25991;DHT22;13779;-33.886;151.198;2023-02-28T08:05:51;24.20;99.90
25991;DHT22;13779;-33.886;151.198;2023-02-28T08:08:22;24.20;99.90
25991;DHT22;13779;-33.886;151.198;2023-02-28T08:10:52;24.10;99.90
25991;DHT22;13779;-33.886;151.198;2023-02-28T08:13:23;24.10;99.90
25991;DHT22;13779;-33.886;151.198;2023-02-28T08:15:54;24.10;99.90
25991;DHT22;13779;-33.886;151.198;2023-02-28T08:18:25;24.10;99.90
25991;DHT22;13779;-33.886;151.198;2023-02-28T08:20:55;24.10;99.90
25991;DHT22;13779;-33.886;151.198;2023-02-28T08:23:26;24.10;99.90
25991;DHT22;13779;-33.886;151.198;2023-02-28T08:25:57;24.10;99.90
25991;DHT22;13779;-33.886;151.198;2023-02-28T08:28:27;24.10;99.90
25991;DHT22;13779;-33.886;151.198;2023-02-28T08:30:57;24.10;99.90
25991;DHT22;13779;-33.886;151.198;2023-02-28T08:33:28;24.10;99.90
25991;DHT22;13779;-33.886;151.198;2023-02-28T08:35:58;24.00;99.90
25991;DHT22;13779;-33.886;151.198;2023-02-28T08:38:28;24.00;99.90
25991;DHT22;13779;-33.886;151.198;2023-02-28T08:41:01;24.00;99.90
25991;DHT22;13779;-33.886;151.198;2023-02-28T08:43:31;24.10;99.90
25991;DHT22;13779;-33.886;151.198;2023-02-28T08:46:02;24.10;99.90
25991;DHT22;13779;-33.886;151.198;2023-02-28T08:48:34;24.10;99.90
25991;DHT22;13779;-33.886;151.198;2023-02-28T08:51:10;24.00;99.90
25991;DHT22;13779;-33.886;151.198;2023-02-28T08:53:41;24.00;99.90
25991;DHT22;13779;-33.886;151.198;2023-02-28T08:56:15;24.00;99.90
25991;DHT22;13779;-33.886;151.198;2023-02-28T08:58:48;24.00;99.90
25991;DHT22;13779;-33.886;151.198;2023-02-28T09:01:29;24.10;99.90
25991;DHT22;13779;-33.886;151.198;2023-02-28T09:04:01;24.10;99.90
25991;DHT22;13779;-33.886;151.198;2023-02-28T09:06:32;24.00;99.90
25991;DHT22;13779;-33.886;151.198;2023-02-28T09:09:03;24.00;99.90
25991;DHT22;13779;-33.886;151.198;2023-02-28T09:11:36;24.00;99.90
25991;DHT22;13779;-33.886;151.198;2023-02-28T09:14:07;24.00;99.90
25991;DHT22;13779;-33.886;151.198;2023-02-28T09:16:37;24.00;99.90
25991;DHT22;13779;-33.886;151.198;2023-02-28T09:19:11;24.00;99.90
25991;DHT22;13779;-33.886;151.198;2023-02-28T09:21:42;24.00;99.90
25991;DHT22;13779;-33.886;151.198;2023-02-28T09:24:13;24.00;99.90
25991;DHT22;13779;-33.886;151.198;2023-02-28T09:26:45;24.10;99.90
25991;DHT22;13779;-33.886;151.198;2023-02-28T09:29:32;24.10;99.90
25991;DHT22;13779;-33.886;151.198;2023-02-28T09:32:03;24.10;99.90
25991;DHT22;13779;-33.886;151.198;2023-02-28T09:34:38;24.10;99.90
25991;DHT22;13779;-33.886;151.198;2023-02-28T09:37:12;24.10;99.90
25991;DHT22;13779;-33.886;151.198;2023-02-28T09:39:42;24.10;99.90
25991;DHT22;13779;-33.886;151.198;2023-02-28T09:42:29;24.10;99.90
25991;DHT22;13779;-33.886;151.198;2023-02-28T09:45:52;24.10;99.90
25991;DHT22;13779;-33.886;151.198;2023-02-28T09:47:59;24.10;99.90
25991;DHT22;13779;-33.886;151.198;2023-02-28T09:50:56;24.10;99.90
25991;DHT22;13779;-33.886;151.198;2023-02-28T09:53:33;24.10;99.90
25991;DHT22;13779;-33.886;151.198;2023-02-28T09:56:33;24.10;99.90
25991;DHT22;13779;-33.886;151.198;2023-02-28T10:12:55;24.10;99.90
25991;DHT22;13779;-33.886;151.198;2023-02-28T10:15:29;24.10;99.90
25991;DHT22;13779;-33.886;151.198;2023-02-28T10:18:06;24.10;99.90
25991;DHT22;13779;-33.886;151.198;2023-02-28T10:20:42;24.10;99.90
25991;DHT22;13779;-33.886;151.198;2023-02-28T10:23:48;24.10;99.90
25991;DHT22;13779;-33.886;151.198;2023-02-28T10:26:18;24.00;99.90
25991;DHT22;13779;-33.886;151.198;2023-02-28T10:28:48;24.10;99.90
25991;DHT22;13779;-33.886;151.198;2023-02-28T10:31:21;24.00;99.90
25991;DHT22;13779;-33.886;151.198;2023-02-28T10:33:52;24.00;99.90
25991;DHT22;13779;-33.886;151.198;2023-02-28T10:36:22;24.00;99.90
25991;DHT22;13779;-33.886;151.198;2023-02-28T10:38:53;24.00;99.90
25991;DHT22;13779;-33.886;151.198;2023-02-28T10:41:30;24.10;99.90
25991;DHT22;13779;-33.886;151.198;2023-02-28T10:44:20;24.10;99.90
25991;DHT22;13779;-33.886;151.198;2023-02-28T10:46:51;24.10;99.90
25991;DHT22;13779;-33.886;151.198;2023-02-28T10:49:26;24.10;99.90
25991;DHT22;13779;-33.886;151.198;2023-02-28T10:52:00;24.10;99.90
25991;DHT22;13779;-33.886;151.198;2023-02-28T10:54:33;24.10;99.90
25991;DHT22;13779;-33.886;151.198;2023-02-28T10:57:22;24.10;99.90
25991;DHT22;13779;-33.886;151.198;2023-02-28T11:00:17;24.10;99.90
25991;DHT22;13779;-33.886;151.198;2023-02-28T11:02:48;24.10;99.90
25991;DHT22;13779;-33.886;151.198;2023-02-28T11:05:32;24.10;99.90
25991;DHT22;13779;-33.886;151.198;2023-02-28T11:08:16;24.10;99.90
25991;DHT22;13779;-33.886;151.198;2023-02-28T11:10:53;24.10;99.90
25991;DHT22;13779;-33.886;151.198;2023-02-28T11:13:35;24.10;99.90
25991;DHT22;13779;-33.886;151.198;2023-02-28T11:16:09;24.10;99.90
25991;DHT22;13779;-33.886;151.198;2023-02-28T11:18:55;24.10;99.90
25991;DHT22;13779;-33.886;151.198;2023-02-28T11:21:31;24.00;99.90
25991;DHT22;13779;-33.886;151.198;2023-02-28T11:24:27;24.00;99.90
25991;DHT22;13779;-33.886;151.198;2023-02-28T11:26:58;24.00;99.90
25991;DHT22;13779;-33.886;151.198;2023-02-28T11:29:31;24.00;99.90
25991;DHT22;13779;-33.886;151.198;2023-02-28T11:32:15;24.00;99.90
25991;DHT22;13779;-33.886;151.198;2023-02-28T11:35:33;23.90;99.90
25991;DHT22;13779;-33.886;151.198;2023-02-28T11:37:38;23.90;99.90
25991;DHT22;13779;-33.886;151.198;2023-02-28T11:40:18;24.00;99.90
25991;DHT22;13779;-33.886;151.198;2023-02-28T12:06:15;24.00;99.90
25991;DHT22;13779;-33.886;151.198;2023-02-28T12:25:47;23.90;99.90
25991;DHT22;13779;-33.886;151.198;2023-02-28T12:28:23;23.80;99.90
25991;DHT22;13779;-33.886;151.198;2023-02-28T12:31:06;23.80;99.90
25991;DHT22;13779;-33.886;151.198;2023-02-28T12:33:44;23.80;99.90
25991;DHT22;13779;-33.886;151.198;2023-02-28T12:36:18;23.80;99.90
25991;DHT22;13779;-33.886;151.198;2023-02-28T12:39:14;23.80;99.90
25991;DHT22;13779;-33.886;151.198;2023-02-28T12:44:35;23.80;99.90
25991;DHT22;13779;-33.886;151.198;2023-02-28T12:47:14;23.80;99.90
25991;DHT22;13779;-33.886;151.198;2023-02-28T12:49:59;23.80;99.90
25991;DHT22;13779;-33.886;151.198;2023-02-28T13:04:07;23.90;99.90
25991;DHT22;13779;-33.886;151.198;2023-02-28T13:09:18;23.90;99.90
25991;DHT22;13779;-33.886;151.198;2023-02-28T13:11:50;23.80;99.90
25991;DHT22;13779;-33.886;151.198;2023-02-28T13:14:36;23.80;99.90
25991;DHT22;13779;-33.886;151.198;2023-02-28T13:17:11;23.90;99.90
25991;DHT22;13779;-33.886;151.198;2023-02-28T13:19:55;23.80;99.90
25991;DHT22;13779;-33.886;151.198;2023-02-28T13:22:41;23.80;99.90
25991;DHT22;13779;-33.886;151.198;2023-02-28T13:28:09;23.90;99.90
25991;DHT22;13779;-33.886;151.198;2023-02-28T13:41:50;24.00;99.90
25991;DHT22;13779;-33.886;151.198;2023-02-28T13:44:22;24.00;99.90
25991;DHT22;13779;-33.886;151.198;2023-02-28T13:49:28;24.00;99.90
25991;DHT22;13779;-33.886;151.198;2023-02-28T13:52:10;24.00;99.90
25991;DHT22;13779;-33.886;151.198;2023-02-28T14:06:26;24.00;99.90
25991;DHT22;13779;-33.886;151.198;2023-02-28T14:11:56;24.00;99.90
25991;DHT22;13779;-33.886;151.198;2023-02-28T14:17:14;24.00;99.90
25991;DHT22;13779;-33.886;151.198;2023-02-28T14:19:46;24.00;99.90
25991;DHT22;13779;-33.886;151.198;2023-02-28T14:22:41;24.00;99.90
25991;DHT22;13779;-33.886;151.198;2023-02-28T14:30:56;24.00;99.90
25991;DHT22;13779;-33.886;151.198;2023-02-28T14:33:35;24.00;99.90
25991;DHT22;13779;-33.886;151.198;2023-02-28T14:36:41;24.00;99.90
25991;DHT22;13779;-33.886;151.198;2023-02-28T14:39:18;24.00;99.90
25991;DHT22;13779;-33.886;151.198;2023-02-28T14:44:58;24.00;99.90
25991;DHT22;13779;-33.886;151.198;2023-02-28T14:47:46;24.00;99.90
25991;DHT22;13779;-33.886;151.198;2023-02-28T14:50:22;24.00;99.90
25991;DHT22;13779;-33.886;151.198;2023-02-28T14:52:53;24.00;99.90
25991;DHT22;13779;-33.886;151.198;2023-02-28T14:55:25;23.90;99.90
25991;DHT22;13779;-33.886;151.198;2023-02-28T14:58:03;23.90;99.90
25991;DHT22;13779;-33.886;151.198;2023-02-28T15:00:42;24.00;99.90
25991;DHT22;13779;-33.886;151.198;2023-02-28T15:05:57;23.90;99.90
25991;DHT22;13779;-33.886;151.198;2023-02-28T15:08:27;23.90;99.90
25991;DHT22;13779;-33.886;151.198;2023-02-28T15:10:59;23.90;99.90
25991;DHT22;13779;-33.886;151.198;2023-02-28T15:16:19;23.90;99.90
25991;DHT22;13779;-33.886;151.198;2023-02-28T15:19:02;24.00;99.90
25991;DHT22;13779;-33.886;151.198;2023-02-28T15:21:37;23.90;99.90
25991;DHT22;13779;-33.886;151.198;2023-02-28T15:24:10;23.90;99.90
25991;DHT22;13779;-33.886;151.198;2023-02-28T15:26:46;23.90;99.90
25991;DHT22;13779;-33.886;151.198;2023-02-28T15:29:24;23.90;99.90
25991;DHT22;13779;-33.886;151.198;2023-02-28T15:32:05;23.90;99.90
25991;DHT22;13779;-33.886;151.198;2023-02-28T15:34:43;23.90;99.90
25991;DHT22;13779;-33.886;151.198;2023-02-28T15:37:45;23.90;99.90
25991;DHT22;13779;-33.886;151.198;2023-02-28T15:40:35;23.90;99.90
25991;DHT22;13779;-33.886;151.198;2023-02-28T15:45:52;23.90;99.90
25991;DHT22;13779;-33.886;151.198;2023-02-28T15:48:36;23.80;99.90
25991;DHT22;13779;-33.886;151.198;2023-02-28T15:54:07;23.80;99.90
25991;DHT22;13779;-33.886;151.198;2023-02-28T15:56:45;23.80;99.90
25991;DHT22;13779;-33.886;151.198;2023-02-28T15:59:21;23.80;99.90
25991;DHT22;13779;-33.886;151.198;2023-02-28T16:05:01;23.80;99.90
25991;DHT22;13779;-33.886;151.198;2023-02-28T16:07:31;23.80;99.90
25991;DHT22;13779;-33.886;151.198;2023-02-28T16:10:03;23.80;99.90
25991;DHT22;13779;-33.886;151.198;2023-02-28T16:12:35;23.80;99.90
25991;DHT22;13779;-33.886;151.198;2023-02-28T16:15:20;23.80;99.90
25991;DHT22;13779;-33.886;151.198;2023-02-28T16:17:51;23.80;99.90
25991;DHT22;13779;-33.886;151.198;2023-02-28T16:20:24;23.80;99.90
25991;DHT22;13779;-33.886;151.198;2023-02-28T16:22:55;23.70;99.90
25991;DHT22;13779;-33.886;151.198;2023-02-28T16:25:38;23.70;99.90
25991;DHT22;13779;-33.886;151.198;2023-02-28T16:28:25;23.80;99.90
25991;DHT22;13779;-33.886;151.198;2023-02-28T16:30:59;23.80;99.90
25991;DHT22;13779;-33.886;151.198;2023-02-28T16:33:32;23.80;99.90
25991;DHT22;13779;-33.886;151.198;2023-02-28T16:36:02;23.80;99.90
25991;DHT22;13779;-33.886;151.198;2023-02-28T16:38:32;23.80;99.90
25991;DHT22;13779;-33.886;151.198;2023-02-28T16:41:03;23.80;99.90
25991;DHT22;13779;-33.886;151.198;2023-02-28T16:43:35;23.80;99.90
25991;DHT22;13779;-33.886;151.198;2023-02-28T16:46:05;23.80;99.90
25991;DHT22;13779;-33.886;151.198;2023-02-28T16:48:36;23.80;99.90
25991;DHT22;13779;-33.886;151.198;2023-02-28T16:51:12;23.80;99.90
25991;DHT22;13779;-33.886;151.198;2023-02-28T16:53:44;23.80;99.90
25991;DHT22;13779;-33.886;151.198;2023-02-28T16:56:23;23.80;99.90
25991;DHT22;13779;-33.886;151.198;2023-02-28T16:58:59;23.80;99.90
25991;DHT22;13779;-33.886;151.198;2023-02-28T17:01:29;23.80;99.90
25991;DHT22;13779;-33.886;151.198;2023-02-28T17:04:00;23.90;99.90
25991;DHT22;13779;-33.886;151.198;2023-02-28T17:06:31;23.80;99.90
25991;DHT22;13779;-33.886;151.198;2023-02-28T17:09:02;23.80;99.90
25991;DHT22;13779;-33.886;151.198;2023-02-28T17:11:32;23.80;99.90
25991;DHT22;13779;-33.886;151.198;2023-02-28T17:14:03;23.80;99.90
25991;DHT22;13779;-33.886;151.198;2023-02-28T17:16:36;23.70;99.90
25991;DHT22;13779;-33.886;151.198;2023-02-28T17:19:14;23.80;99.90
25991;DHT22;13779;-33.886;151.198;2023-02-28T17:21:45;23.80;99.90
25991;DHT22;13779;-33.886;151.198;2023-02-28T17:24:16;23.70;99.90
25991;DHT22;13779;-33.886;151.198;2023-02-28T17:26:56;23.80;99.90
25991;DHT22;13779;-33.886;151.198;2023-02-28T17:29:30;23.70;99.90
25991;DHT22;13779;-33.886;151.198;2023-02-28T17:32:04;23.80;99.90
25991;DHT22;13779;-33.886;151.198;2023-02-28T17:34:44;23.70;99.90
25991;DHT22;13779;-33.886;151.198;2023-02-28T17:37:15;23.70;99.90
25991;DHT22;13779;-33.886;151.198;2023-02-28T17:39:46;23.70;99.90
25991;DHT22;13779;-33.886;151.198;2023-02-28T17:42:16;23.70;99.90
25991;DHT22;13779;-33.886;151.198;2023-02-28T17:44:48;23.70;99.90
25991;DHT22;13779;-33.886;151.198;2023-02-28T17:47:18;23.70;99.90
25991;DHT22;13779;-33.886;151.198;2023-02-28T17:49:48;23.70;99.90
25991;DHT22;13779;-33.886;151.198;2023-02-28T17:52:18;23.70;99.90
25991;DHT22;13779;-33.886;151.198;2023-02-28T17:54:50;23.70;99.90
25991;DHT22;13779;-33.886;151.198;2023-02-28T17:57:21;23.70;99.90
25991;DHT22;13779;-33.886;151.198;2023-02-28T17:59:51;23.70;99.90
25991;DHT22;13779;-33.886;151.198;2023-02-28T18:02:21;23.70;99.90
25991;DHT22;13779;-33.886;151.198;2023-02-28T18:04:51;23.70;99.90
25991;DHT22;13779;-33.886;151.198;2023-02-28T18:07:22;23.70;99.90
25991;DHT22;13779;-33.886;151.198;2023-02-28T18:09:52;23.60;99.90
25991;DHT22;13779;-33.886;151.198;2023-02-28T18:12:23;23.60;99.90
25991;DHT22;13779;-33.886;151.198;2023-02-28T18:14:53;23.50;99.90